sensor_id;sensor_type;location;lat;lon;timestamp;P1;durP1;ratioP1;P2;durP2;ratioP2
58302;SDS011;44109;52.398;7.024;2023-02-10T00:01:25;42.15;;;22.75;;
58302;SDS011;44109;52.398;7.024;2023-02-10T00:03:54;41.72;;;23.67;;
58302;SDS011;44109;52.398;7.024;2023-02-10T00:06:24;39.33;;;22.67;;
58302;SDS011;44109;52.398;7.024;2023-02-10T00:08:55;43.88;;;22.33;;
58302;SDS011;44109;52.398;7.024;2023-02-10T00:11:25;49.80;;;26.85;;
58302;SDS011;44109;52.398;7.024;2023-02-10T00:14:12;47.75;;;26.83;;
58302;SDS011;44109;52.398;7.024;2023-02-10T00:16:44;60.13;;;30.48;;
58302;SDS011;44109;52.398;7.024;2023-02-10T00:19:13;53.63;;;28.30;;
58302;SDS011;44109;52.398;7.024;2023-02-10T00:21:40;45.00;;;23.58;;
58302;SDS011;44109;52.398;7.024;2023-02-10T00:24:08;46.38;;;25.58;;
58302;SDS011;44109;52.398;7.024;2023-02-10T00:26:36;71.50;;;33.22;;
58302;SDS011;44109;52.398;7.024;2023-02-10T00:29:03;69.13;;;35.45;;
58302;SDS011;44109;52.398;7.024;2023-02-10T00:31:31;60.03;;;29.00;;
58302;SDS011;44109;52.398;7.024;2023-02-10T00:34:00;54.13;;;28.05;;
58302;SDS011;44109;52.398;7.024;2023-02-10T00:36:28;50.83;;;27.13;;
58302;SDS011;44109;52.398;7.024;2023-02-10T00:38:56;73.00;;;34.70;;
58302;SDS011;44109;52.398;7.024;2023-02-10T00:41:24;44.80;;;26.42;;
58302;SDS011;44109;52.398;7.024;2023-02-10T00:43:51;39.15;;;22.42;;
58302;SDS011;44109;52.398;7.024;2023-02-10T00:46:20;47.60;;;24.65;;
58302;SDS011;44109;52.398;7.024;2023-02-10T00:48:49;47.35;;;25.42;;
58302;SDS011;44109;52.398;7.024;2023-02-10T00:51:18;47.30;;;27.10;;
58302;SDS011;44109;52.398;7.024;2023-02-10T00:53:46;43.45;;;23.73;;
58302;SDS011;44109;52.398;7.024;2023-02-10T00:56:16;72.22;;;36.13;;
58302;SDS011;44109;52.398;7.024;2023-02-10T00:58:46;48.05;;;26.20;;
58302;SDS011;44109;52.398;7.024;2023-02-10T01:01:14;61.60;;;29.88;;
58302;SDS011;44109;52.398;7.024;2023-02-10T01:06:10;54.63;;;26.67;;
58302;SDS011;44109;52.398;7.024;2023-02-10T01:08:42;46.15;;;26.08;;
58302;SDS011;44109;52.398;7.024;2023-02-10T01:11:11;55.33;;;28.05;;
58302;SDS011;44109;52.398;7.024;2023-02-10T01:13:40;46.42;;;24.77;;
58302;SDS011;44109;52.398;7.024;2023-02-10T01:16:10;42.47;;;24.05;;
58302;SDS011;44109;52.398;7.024;2023-02-10T01:18:42;58.97;;;30.02;;
58302;SDS011;44109;52.398;7.024;2023-02-10T01:21:11;43.28;;;24.45;;
58302;SDS011;44109;52.398;7.024;2023-02-10T01:23:43;55.22;;;28.27;;
58302;SDS011;44109;52.398;7.024;2023-02-10T01:26:12;79.38;;;37.33;;
58302;SDS011;44109;52.398;7.024;2023-02-10T01:28:40;59.65;;;28.98;;
58302;SDS011;44109;52.398;7.024;2023-02-10T01:31:10;44.55;;;23.77;;
58302;SDS011;44109;52.398;7.024;2023-02-10T01:33:41;73.55;;;34.38;;
58302;SDS011;44109;52.398;7.024;2023-02-10T01:36:10;43.35;;;22.45;;
58302;SDS011;44109;52.398;7.024;2023-02-10T01:38:41;63.15;;;31.83;;
58302;SDS011;44109;52.398;7.024;2023-02-10T01:41:12;45.40;;;23.83;;
58302;SDS011;44109;52.398;7.024;2023-02-10T01:43:56;45.03;;;22.98;;
58302;SDS011;44109;52.398;7.024;2023-02-10T01:46:29;74.30;;;35.00;;
58302;SDS011;44109;52.398;7.024;2023-02-10T01:49:00;58.47;;;28.98;;
58302;SDS011;44109;52.398;7.024;2023-02-10T01:51:36;56.53;;;28.48;;
58302;SDS011;44109;52.398;7.024;2023-02-10T01:54:10;63.90;;;31.70;;
58302;SDS011;44109;52.398;7.024;2023-02-10T01:56:49;41.60;;;22.85;;
58302;SDS011;44109;52.398;7.024;2023-02-10T01:59:19;48.50;;;26.48;;
58302;SDS011;44109;52.398;7.024;2023-02-10T02:01:49;70.55;;;35.97;;
58302;SDS011;44109;52.398;7.024;2023-02-10T02:04:17;44.03;;;24.00;;
58302;SDS011;44109;52.398;7.024;2023-02-10T02:06:45;67.53;;;35.10;;
58302;SDS011;44109;52.398;7.024;2023-02-10T02:09:14;62.25;;;31.48;;
58302;SDS011;44109;52.398;7.024;2023-02-10T02:11:43;44.83;;;23.33;;
58302;SDS011;44109;52.398;7.024;2023-02-10T02:14:27;52.33;;;27.48;;
58302;SDS011;44109;52.398;7.024;2023-02-10T02:17:09;44.30;;;22.27;;
58302;SDS011;44109;52.398;7.024;2023-02-10T02:26:40;50.35;;;26.75;;
58302;SDS011;44109;52.398;7.024;2023-02-10T02:29:29;63.05;;;27.98;;
58302;SDS011;44109;52.398;7.024;2023-02-10T02:32:22;53.10;;;27.35;;
58302;SDS011;44109;52.398;7.024;2023-02-10T02:34:55;72.60;;;36.25;;
58302;SDS011;44109;52.398;7.024;2023-02-10T02:37:31;69.72;;;32.60;;
58302;SDS011;44109;52.398;7.024;2023-02-10T02:40:05;89.82;;;39.55;;
58302;SDS011;44109;52.398;7.024;2023-02-10T02:42:33;45.00;;;25.00;;
58302;SDS011;44109;52.398;7.024;2023-02-10T02:45:03;38.58;;;21.33;;
58302;SDS011;44109;52.398;7.024;2023-02-10T02:47:43;45.97;;;24.65;;
58302;SDS011;44109;52.398;7.024;2023-02-10T02:50:27;45.85;;;26.38;;
58302;SDS011;44109;52.398;7.024;2023-02-10T02:53:08;48.55;;;23.90;;
58302;SDS011;44109;52.398;7.024;2023-02-10T02:55:50;54.13;;;27.58;;
58302;SDS011;44109;52.398;7.024;2023-02-10T02:58:30;53.92;;;26.95;;
58302;SDS011;44109;52.398;7.024;2023-02-10T03:01:11;58.53;;;30.45;;
58302;SDS011;44109;52.398;7.024;2023-02-10T03:03:44;57.92;;;31.48;;
58302;SDS011;44109;52.398;7.024;2023-02-10T03:06:12;45.15;;;22.50;;
58302;SDS011;44109;52.398;7.024;2023-02-10T03:08:39;45.58;;;25.98;;
58302;SDS011;44109;52.398;7.024;2023-02-10T03:11:08;49.50;;;26.13;;
58302;SDS011;44109;52.398;7.024;2023-02-10T03:13:36;57.58;;;28.52;;
58302;SDS011;44109;52.398;7.024;2023-02-10T03:16:04;60.60;;;30.52;;
58302;SDS011;44109;52.398;7.024;2023-02-10T03:18:32;64.60;;;30.80;;
58302;SDS011;44109;52.398;7.024;2023-02-10T03:21:01;71.40;;;35.03;;
58302;SDS011;44109;52.398;7.024;2023-02-10T03:23:29;55.40;;;29.40;;
58302;SDS011;44109;52.398;7.024;2023-02-10T03:25:57;42.17;;;22.45;;
58302;SDS011;44109;52.398;7.024;2023-02-10T03:28:26;43.50;;;25.27;;
58302;SDS011;44109;52.398;7.024;2023-02-10T03:30:54;40.50;;;22.92;;
58302;SDS011;44109;52.398;7.024;2023-02-10T03:33:23;35.45;;;21.30;;
58302;SDS011;44109;52.398;7.024;2023-02-10T03:35:51;73.47;;;38.00;;
58302;SDS011;44109;52.398;7.024;2023-02-10T03:38:20;36.38;;;21.30;;
58302;SDS011;44109;52.398;7.024;2023-02-10T03:40:48;57.60;;;26.70;;
58302;SDS011;44109;52.398;7.024;2023-02-10T03:43:17;39.60;;;22.00;;
58302;SDS011;44109;52.398;7.024;2023-02-10T03:45:45;36.70;;;20.90;;
58302;SDS011;44109;52.398;7.024;2023-02-10T03:48:13;38.05;;;22.10;;
58302;SDS011;44109;52.398;7.024;2023-02-10T03:50:41;42.88;;;24.17;;
58302;SDS011;44109;52.398;7.024;2023-02-10T03:53:09;56.10;;;29.95;;
58302;SDS011;44109;52.398;7.024;2023-02-10T03:55:39;72.35;;;38.83;;
58302;SDS011;44109;52.398;7.024;2023-02-10T03:58:06;48.95;;;27.10;;
58302;SDS011;44109;52.398;7.024;2023-02-10T04:00:34;35.33;;;20.02;;
58302;SDS011;44109;52.398;7.024;2023-02-10T04:03:01;35.58;;;18.52;;
58302;SDS011;44109;52.398;7.024;2023-02-10T04:05:29;60.97;;;29.52;;
58302;SDS011;44109;52.398;7.024;2023-02-10T04:07:57;36.97;;;20.10;;
58302;SDS011;44109;52.398;7.024;2023-02-10T04:10:24;44.22;;;24.08;;
58302;SDS011;44109;52.398;7.024;2023-02-10T04:12:53;38.25;;;20.25;;
58302;SDS011;44109;52.398;7.024;2023-02-10T04:15:21;41.08;;;21.70;;
58302;SDS011;44109;52.398;7.024;2023-02-10T04:17:49;39.65;;;21.50;;
58302;SDS011;44109;52.398;7.024;2023-02-10T04:20:17;37.30;;;20.52;;
58302;SDS011;44109;52.398;7.024;2023-02-10T04:22:45;44.58;;;23.88;;
58302;SDS011;44109;52.398;7.024;2023-02-10T04:25:12;64.70;;;29.92;;
58302;SDS011;44109;52.398;7.024;2023-02-10T04:27:40;40.33;;;20.25;;
58302;SDS011;44109;52.398;7.024;2023-02-10T04:30:10;52.22;;;27.10;;
58302;SDS011;44109;52.398;7.024;2023-02-10T04:32:38;41.03;;;21.38;;
58302;SDS011;44109;52.398;7.024;2023-02-10T04:35:06;43.80;;;21.30;;
58302;SDS011;44109;52.398;7.024;2023-02-10T04:37:34;31.55;;;17.58;;
58302;SDS011;44109;52.398;7.024;2023-02-10T04:40:02;58.13;;;27.08;;
58302;SDS011;44109;52.398;7.024;2023-02-10T04:42:30;45.35;;;24.33;;
58302;SDS011;44109;52.398;7.024;2023-02-10T04:44:58;50.95;;;27.75;;
58302;SDS011;44109;52.398;7.024;2023-02-10T04:47:28;30.05;;;18.40;;
58302;SDS011;44109;52.398;7.024;2023-02-10T04:49:56;50.55;;;26.83;;
58302;SDS011;44109;52.398;7.024;2023-02-10T04:52:23;35.53;;;19.80;;
58302;SDS011;44109;52.398;7.024;2023-02-10T04:54:51;33.10;;;18.67;;
58302;SDS011;44109;52.398;7.024;2023-02-10T04:57:19;38.03;;;19.75;;
58302;SDS011;44109;52.398;7.024;2023-02-10T04:59:46;57.53;;;31.45;;
58302;SDS011;44109;52.398;7.024;2023-02-10T05:02:14;34.30;;;20.02;;
58302;SDS011;44109;52.398;7.024;2023-02-10T05:04:43;27.38;;;16.52;;
58302;SDS011;44109;52.398;7.024;2023-02-10T05:07:11;54.58;;;31.08;;
58302;SDS011;44109;52.398;7.024;2023-02-10T05:09:38;68.05;;;35.60;;
58302;SDS011;44109;52.398;7.024;2023-02-10T05:12:06;32.10;;;19.23;;
58302;SDS011;44109;52.398;7.024;2023-02-10T05:14:34;62.55;;;31.88;;
58302;SDS011;44109;52.398;7.024;2023-02-10T05:17:01;40.83;;;20.20;;
58302;SDS011;44109;52.398;7.024;2023-02-10T05:19:29;27.70;;;18.00;;
58302;SDS011;44109;52.398;7.024;2023-02-10T05:21:58;59.67;;;29.85;;
58302;SDS011;44109;52.398;7.024;2023-02-10T05:24:26;47.00;;;23.90;;
58302;SDS011;44109;52.398;7.024;2023-02-10T05:26:53;42.28;;;22.48;;
58302;SDS011;44109;52.398;7.024;2023-02-10T05:29:21;47.60;;;26.95;;
58302;SDS011;44109;52.398;7.024;2023-02-10T05:31:49;36.85;;;22.33;;
58302;SDS011;44109;52.398;7.024;2023-02-10T05:34:16;40.95;;;23.92;;
58302;SDS011;44109;52.398;7.024;2023-02-10T05:36:44;48.17;;;26.52;;
58302;SDS011;44109;52.398;7.024;2023-02-10T05:39:13;31.75;;;17.67;;
58302;SDS011;44109;52.398;7.024;2023-02-10T05:41:49;40.90;;;22.05;;
58302;SDS011;44109;52.398;7.024;2023-02-10T05:44:17;37.17;;;19.05;;
58302;SDS011;44109;52.398;7.024;2023-02-10T05:46:45;43.25;;;22.23;;
58302;SDS011;44109;52.398;7.024;2023-02-10T05:49:13;37.10;;;19.50;;
58302;SDS011;44109;52.398;7.024;2023-02-10T05:51:41;36.33;;;20.10;;
58302;SDS011;44109;52.398;7.024;2023-02-10T05:54:09;32.72;;;19.52;;
58302;SDS011;44109;52.398;7.024;2023-02-10T05:56:38;32.92;;;17.70;;
58302;SDS011;44109;52.398;7.024;2023-02-10T05:59:06;57.03;;;29.15;;
58302;SDS011;44109;52.398;7.024;2023-02-10T06:01:38;27.17;;;15.43;;
58302;SDS011;44109;52.398;7.024;2023-02-10T06:04:06;47.67;;;24.33;;
58302;SDS011;44109;52.398;7.024;2023-02-10T06:06:33;43.75;;;24.92;;
58302;SDS011;44109;52.398;7.024;2023-02-10T06:09:01;25.92;;;14.63;;
58302;SDS011;44109;52.398;7.024;2023-02-10T06:11:29;36.45;;;20.05;;
58302;SDS011;44109;52.398;7.024;2023-02-10T06:13:58;27.55;;;16.40;;
58302;SDS011;44109;52.398;7.024;2023-02-10T06:16:25;61.00;;;30.45;;
58302;SDS011;44109;52.398;7.024;2023-02-10T06:18:53;31.20;;;17.10;;
58302;SDS011;44109;52.398;7.024;2023-02-10T06:21:21;30.63;;;16.88;;
58302;SDS011;44109;52.398;7.024;2023-02-10T06:23:49;32.95;;;17.30;;
58302;SDS011;44109;52.398;7.024;2023-02-10T06:26:17;23.80;;;15.32;;
58302;SDS011;44109;52.398;7.024;2023-02-10T06:28:45;30.50;;;17.05;;
58302;SDS011;44109;52.398;7.024;2023-02-10T06:31:14;25.88;;;14.88;;
58302;SDS011;44109;52.398;7.024;2023-02-10T06:33:42;32.58;;;17.10;;
58302;SDS011;44109;52.398;7.024;2023-02-10T06:36:09;43.03;;;20.15;;
58302;SDS011;44109;52.398;7.024;2023-02-10T06:38:37;34.90;;;19.45;;
58302;SDS011;44109;52.398;7.024;2023-02-10T06:41:05;41.25;;;21.17;;
58302;SDS011;44109;52.398;7.024;2023-02-10T06:43:33;29.40;;;17.13;;
58302;SDS011;44109;52.398;7.024;2023-02-10T06:46:00;32.28;;;17.50;;
58302;SDS011;44109;52.398;7.024;2023-02-10T06:48:29;32.42;;;18.15;;
58302;SDS011;44109;52.398;7.024;2023-02-10T06:50:57;31.40;;;18.73;;
58302;SDS011;44109;52.398;7.024;2023-02-10T06:53:25;39.08;;;20.45;;
58302;SDS011;44109;52.398;7.024;2023-02-10T06:55:55;33.47;;;18.25;;
58302;SDS011;44109;52.398;7.024;2023-02-10T06:58:23;29.73;;;17.58;;
58302;SDS011;44109;52.398;7.024;2023-02-10T07:00:51;36.30;;;20.55;;
58302;SDS011;44109;52.398;7.024;2023-02-10T07:03:18;33.97;;;18.00;;
58302;SDS011;44109;52.398;7.024;2023-02-10T07:05:47;29.25;;;17.38;;
58302;SDS011;44109;52.398;7.024;2023-02-10T07:08:15;30.55;;;18.23;;
58302;SDS011;44109;52.398;7.024;2023-02-10T07:10:43;31.77;;;16.48;;
58302;SDS011;44109;52.398;7.024;2023-02-10T07:13:10;28.88;;;16.67;;
58302;SDS011;44109;52.398;7.024;2023-02-10T07:15:38;55.47;;;28.73;;
58302;SDS011;44109;52.398;7.024;2023-02-10T07:18:06;39.00;;;19.20;;
58302;SDS011;44109;52.398;7.024;2023-02-10T07:20:33;50.05;;;25.20;;
58302;SDS011;44109;52.398;7.024;2023-02-10T07:23:02;42.50;;;21.05;;
58302;SDS011;44109;52.398;7.024;2023-02-10T07:25:30;61.25;;;30.98;;
58302;SDS011;44109;52.398;7.024;2023-02-10T07:27:58;38.53;;;21.13;;
58302;SDS011;44109;52.398;7.024;2023-02-10T07:30:25;31.92;;;18.75;;
58302;SDS011;44109;52.398;7.024;2023-02-10T07:32:53;83.35;;;38.72;;
58302;SDS011;44109;52.398;7.024;2023-02-10T07:35:21;62.55;;;32.38;;
58302;SDS011;44109;52.398;7.024;2023-02-10T07:37:49;64.53;;;31.17;;
58302;SDS011;44109;52.398;7.024;2023-02-10T07:40:18;48.20;;;25.40;;
58302;SDS011;44109;52.398;7.024;2023-02-10T07:42:47;62.80;;;29.75;;
58302;SDS011;44109;52.398;7.024;2023-02-10T07:45:15;76.70;;;36.60;;
58302;SDS011;44109;52.398;7.024;2023-02-10T07:47:42;77.15;;;36.55;;
58302;SDS011;44109;52.398;7.024;2023-02-10T07:50:10;50.33;;;26.60;;
58302;SDS011;44109;52.398;7.024;2023-02-10T07:52:38;76.10;;;38.65;;
58302;SDS011;44109;52.398;7.024;2023-02-10T07:55:07;43.53;;;23.42;;
58302;SDS011;44109;52.398;7.024;2023-02-10T07:57:36;54.42;;;28.23;;
58302;SDS011;44109;52.398;7.024;2023-02-10T08:00:04;41.85;;;22.98;;
58302;SDS011;44109;52.398;7.024;2023-02-10T08:02:34;78.75;;;37.13;;
58302;SDS011;44109;52.398;7.024;2023-02-10T08:05:01;55.90;;;30.50;;
58302;SDS011;44109;52.398;7.024;2023-02-10T08:07:29;68.03;;;33.53;;
58302;SDS011;44109;52.398;7.024;2023-02-10T08:09:57;87.53;;;41.97;;
58302;SDS011;44109;52.398;7.024;2023-02-10T08:12:24;61.83;;;32.67;;
58302;SDS011;44109;52.398;7.024;2023-02-10T08:14:54;75.13;;;40.45;;
58302;SDS011;44109;52.398;7.024;2023-02-10T08:17:21;68.50;;;35.40;;
58302;SDS011;44109;52.398;7.024;2023-02-10T08:19:49;62.60;;;35.17;;
58302;SDS011;44109;52.398;7.024;2023-02-10T08:22:16;68.18;;;36.33;;
58302;SDS011;44109;52.398;7.024;2023-02-10T08:24:44;64.47;;;34.53;;
58302;SDS011;44109;52.398;7.024;2023-02-10T08:27:12;63.03;;;31.85;;
58302;SDS011;44109;52.398;7.024;2023-02-10T08:29:39;54.13;;;30.55;;
58302;SDS011;44109;52.398;7.024;2023-02-10T08:32:08;57.25;;;28.63;;
58302;SDS011;44109;52.398;7.024;2023-02-10T08:34:37;76.68;;;40.42;;
58302;SDS011;44109;52.398;7.024;2023-02-10T08:37:04;54.97;;;30.80;;
58302;SDS011;44109;52.398;7.024;2023-02-10T08:39:32;62.38;;;32.10;;
58302;SDS011;44109;52.398;7.024;2023-02-10T08:42:00;87.93;;;43.33;;
58302;SDS011;44109;52.398;7.024;2023-02-10T08:44:27;59.97;;;32.25;;
58302;SDS011;44109;52.398;7.024;2023-02-10T08:46:55;63.92;;;34.22;;
58302;SDS011;44109;52.398;7.024;2023-02-10T08:49:24;91.30;;;47.97;;
58302;SDS011;44109;52.398;7.024;2023-02-10T08:51:53;83.20;;;43.80;;
58302;SDS011;44109;52.398;7.024;2023-02-10T08:54:21;82.35;;;44.10;;
58302;SDS011;44109;52.398;7.024;2023-02-10T08:56:52;71.72;;;40.13;;
58302;SDS011;44109;52.398;7.024;2023-02-10T08:59:21;69.35;;;39.65;;
58302;SDS011;44109;52.398;7.024;2023-02-10T09:01:50;65.38;;;34.22;;
58302;SDS011;44109;52.398;7.024;2023-02-10T09:04:18;76.93;;;41.33;;
58302;SDS011;44109;52.398;7.024;2023-02-10T09:06:47;78.95;;;43.33;;
58302;SDS011;44109;52.398;7.024;2023-02-10T09:09:15;79.70;;;40.55;;
58302;SDS011;44109;52.398;7.024;2023-02-10T09:11:47;56.70;;;33.75;;
58302;SDS011;44109;52.398;7.024;2023-02-10T09:14:15;84.32;;;47.25;;
58302;SDS011;44109;52.398;7.024;2023-02-10T09:16:43;53.30;;;33.60;;
58302;SDS011;44109;52.398;7.024;2023-02-10T09:19:10;62.20;;;36.30;;
58302;SDS011;44109;52.398;7.024;2023-02-10T09:21:38;54.10;;;32.38;;
58302;SDS011;44109;52.398;7.024;2023-02-10T09:24:07;58.33;;;34.08;;
58302;SDS011;44109;52.398;7.024;2023-02-10T09:26:35;58.75;;;33.78;;
58302;SDS011;44109;52.398;7.024;2023-02-10T09:29:02;53.63;;;31.02;;
58302;SDS011;44109;52.398;7.024;2023-02-10T09:31:30;54.42;;;33.42;;
58302;SDS011;44109;52.398;7.024;2023-02-10T09:33:59;50.67;;;31.02;;
58302;SDS011;44109;52.398;7.024;2023-02-10T09:36:27;61.88;;;37.08;;
58302;SDS011;44109;52.398;7.024;2023-02-10T09:38:55;61.03;;;35.00;;
58302;SDS011;44109;52.398;7.024;2023-02-10T09:41:28;41.90;;;27.75;;
58302;SDS011;44109;52.398;7.024;2023-02-10T09:44:12;57.17;;;34.53;;
58302;SDS011;44109;52.398;7.024;2023-02-10T09:46:50;50.53;;;28.63;;
58302;SDS011;44109;52.398;7.024;2023-02-10T09:49:43;50.00;;;28.35;;
58302;SDS011;44109;52.398;7.024;2023-02-10T09:52:41;57.63;;;34.00;;
58302;SDS011;44109;52.398;7.024;2023-02-10T09:55:29;47.33;;;28.45;;
58302;SDS011;44109;52.398;7.024;2023-02-10T10:00:39;51.35;;;29.02;;
58302;SDS011;44109;52.398;7.024;2023-02-10T10:03:11;43.90;;;25.95;;
58302;SDS011;44109;52.398;7.024;2023-02-10T10:05:49;49.08;;;30.15;;
58302;SDS011;44109;52.398;7.024;2023-02-10T10:08:30;47.55;;;28.50;;
58302;SDS011;44109;52.398;7.024;2023-02-10T10:11:17;41.50;;;22.70;;
58302;SDS011;44109;52.398;7.024;2023-02-10T10:13:53;44.55;;;26.35;;
58302;SDS011;44109;52.398;7.024;2023-02-10T10:16:33;45.65;;;28.52;;
58302;SDS011;44109;52.398;7.024;2023-02-10T10:19:22;45.83;;;27.83;;
58302;SDS011;44109;52.398;7.024;2023-02-10T10:22:11;47.67;;;25.77;;
58302;SDS011;44109;52.398;7.024;2023-02-10T10:25:05;49.38;;;26.95;;
58302;SDS011;44109;52.398;7.024;2023-02-10T10:27:55;42.22;;;24.75;;
58302;SDS011;44109;52.398;7.024;2023-02-10T10:30:43;53.03;;;27.80;;
58302;SDS011;44109;52.398;7.024;2023-02-10T10:33:18;37.58;;;23.13;;
58302;SDS011;44109;52.398;7.024;2023-02-10T10:35:50;39.67;;;23.40;;
58302;SDS011;44109;52.398;7.024;2023-02-10T10:38:19;44.33;;;23.98;;
58302;SDS011;44109;52.398;7.024;2023-02-10T10:40:50;47.58;;;24.48;;
58302;SDS011;44109;52.398;7.024;2023-02-10T10:43:22;50.67;;;26.88;;
58302;SDS011;44109;52.398;7.024;2023-02-10T10:45:57;40.22;;;24.27;;
58302;SDS011;44109;52.398;7.024;2023-02-10T10:48:33;37.22;;;21.90;;
58302;SDS011;44109;52.398;7.024;2023-02-10T10:51:07;38.70;;;22.23;;
58302;SDS011;44109;52.398;7.024;2023-02-10T10:53:37;35.75;;;21.00;;
58302;SDS011;44109;52.398;7.024;2023-02-10T10:56:12;38.35;;;22.45;;
58302;SDS011;44109;52.398;7.024;2023-02-10T10:58:47;39.28;;;22.92;;
58302;SDS011;44109;52.398;7.024;2023-02-10T11:01:28;35.80;;;20.20;;
58302;SDS011;44109;52.398;7.024;2023-02-10T11:04:06;35.42;;;19.73;;
58302;SDS011;44109;52.398;7.024;2023-02-10T11:06:40;38.67;;;21.85;;
58302;SDS011;44109;52.398;7.024;2023-02-10T11:09:22;34.55;;;20.58;;
58302;SDS011;44109;52.398;7.024;2023-02-10T11:12:00;37.92;;;21.60;;
58302;SDS011;44109;52.398;7.024;2023-02-10T11:14:36;35.22;;;20.70;;
58302;SDS011;44109;52.398;7.024;2023-02-10T11:17:17;38.30;;;21.52;;
58302;SDS011;44109;52.398;7.024;2023-02-10T11:19:53;35.78;;;20.02;;
58302;SDS011;44109;52.398;7.024;2023-02-10T11:22:24;31.55;;;18.52;;
58302;SDS011;44109;52.398;7.024;2023-02-10T11:24:54;33.58;;;18.38;;
58302;SDS011;44109;52.398;7.024;2023-02-10T11:27:23;30.98;;;18.95;;
58302;SDS011;44109;52.398;7.024;2023-02-10T11:29:52;31.65;;;18.05;;
58302;SDS011;44109;52.398;7.024;2023-02-10T11:32:24;34.08;;;19.10;;
58302;SDS011;44109;52.398;7.024;2023-02-10T11:34:55;34.83;;;19.37;;
58302;SDS011;44109;52.398;7.024;2023-02-10T11:37:28;34.42;;;18.58;;
58302;SDS011;44109;52.398;7.024;2023-02-10T11:39:59;30.58;;;18.98;;
58302;SDS011;44109;52.398;7.024;2023-02-10T11:42:32;32.57;;;18.80;;
58302;SDS011;44109;52.398;7.024;2023-02-10T11:45:14;34.10;;;18.55;;
58302;SDS011;44109;52.398;7.024;2023-02-10T11:47:46;36.67;;;19.48;;
58302;SDS011;44109;52.398;7.024;2023-02-10T11:50:20;35.47;;;20.27;;
58302;SDS011;44109;52.398;7.024;2023-02-10T11:52:49;34.25;;;18.48;;
58302;SDS011;44109;52.398;7.024;2023-02-10T11:55:17;28.52;;;16.13;;
58302;SDS011;44109;52.398;7.024;2023-02-10T11:57:54;34.35;;;19.20;;
58302;SDS011;44109;52.398;7.024;2023-02-10T12:00:50;33.22;;;17.88;;
58302;SDS011;44109;52.398;7.024;2023-02-10T12:03:32;32.15;;;17.20;;
58302;SDS011;44109;52.398;7.024;2023-02-10T12:06:14;34.47;;;20.17;;
58302;SDS011;44109;52.398;7.024;2023-02-10T12:08:57;35.45;;;20.50;;
58302;SDS011;44109;52.398;7.024;2023-02-10T12:11:42;30.02;;;17.70;;
58302;SDS011;44109;52.398;7.024;2023-02-10T12:14:25;38.70;;;18.88;;
58302;SDS011;44109;52.398;7.024;2023-02-10T12:17:15;33.33;;;20.88;;
58302;SDS011;44109;52.398;7.024;2023-02-10T12:19:58;33.30;;;19.45;;
58302;SDS011;44109;52.398;7.024;2023-02-10T12:22:51;34.20;;;20.13;;
58302;SDS011;44109;52.398;7.024;2023-02-10T12:25:39;28.30;;;15.47;;
58302;SDS011;44109;52.398;7.024;2023-02-10T12:28:19;39.28;;;19.95;;
58302;SDS011;44109;52.398;7.024;2023-02-10T12:31:06;33.85;;;17.00;;
58302;SDS011;44109;52.398;7.024;2023-02-10T12:33:53;32.80;;;18.42;;
58302;SDS011;44109;52.398;7.024;2023-02-10T12:36:52;39.72;;;20.67;;
58302;SDS011;44109;52.398;7.024;2023-02-10T12:39:37;42.15;;;22.45;;
58302;SDS011;44109;52.398;7.024;2023-02-10T12:42:19;35.00;;;20.42;;
58302;SDS011;44109;52.398;7.024;2023-02-10T12:45:12;45.10;;;24.60;;
58302;SDS011;44109;52.398;7.024;2023-02-10T12:47:54;42.17;;;21.67;;
58302;SDS011;44109;52.398;7.024;2023-02-10T12:50:41;44.53;;;20.88;;
58302;SDS011;44109;52.398;7.024;2023-02-10T12:53:28;41.17;;;21.02;;
58302;SDS011;44109;52.398;7.024;2023-02-10T12:56:05;37.25;;;20.77;;
58302;SDS011;44109;52.398;7.024;2023-02-10T12:58:41;41.30;;;22.92;;
58302;SDS011;44109;52.398;7.024;2023-02-10T13:01:18;41.72;;;23.13;;
58302;SDS011;44109;52.398;7.024;2023-02-10T13:03:56;35.58;;;20.25;;
58302;SDS011;44109;52.398;7.024;2023-02-10T13:06:34;43.20;;;22.73;;
58302;SDS011;44109;52.398;7.024;2023-02-10T13:09:11;39.55;;;20.92;;
58302;SDS011;44109;52.398;7.024;2023-02-10T13:11:55;31.98;;;17.88;;
58302;SDS011;44109;52.398;7.024;2023-02-10T13:14:39;41.83;;;22.88;;
58302;SDS011;44109;52.398;7.024;2023-02-10T13:17:11;52.45;;;22.75;;
58302;SDS011;44109;52.398;7.024;2023-02-10T13:19:39;37.15;;;20.42;;
58302;SDS011;44109;52.398;7.024;2023-02-10T13:22:24;45.88;;;21.23;;
58302;SDS011;44109;52.398;7.024;2023-02-10T13:25:13;44.50;;;21.77;;
58302;SDS011;44109;52.398;7.024;2023-02-10T13:27:50;43.05;;;22.00;;
58302;SDS011;44109;52.398;7.024;2023-02-10T13:33:44;45.78;;;21.00;;
58302;SDS011;44109;52.398;7.024;2023-02-10T13:36:24;40.92;;;21.05;;
58302;SDS011;44109;52.398;7.024;2023-02-10T13:38:59;44.97;;;22.43;;
58302;SDS011;44109;52.398;7.024;2023-02-10T13:41:33;42.83;;;22.27;;
58302;SDS011;44109;52.398;7.024;2023-02-10T13:44:16;41.80;;;21.38;;
58302;SDS011;44109;52.398;7.024;2023-02-10T13:46:58;41.85;;;20.48;;
58302;SDS011;44109;52.398;7.024;2023-02-10T13:49:49;46.17;;;23.80;;
58302;SDS011;44109;52.398;7.024;2023-02-10T13:52:22;51.90;;;26.13;;
58302;SDS011;44109;52.398;7.024;2023-02-10T13:54:53;49.03;;;24.05;;
58302;SDS011;44109;52.398;7.024;2023-02-10T13:57:28;51.15;;;24.70;;
58302;SDS011;44109;52.398;7.024;2023-02-10T14:00:14;47.47;;;22.20;;
58302;SDS011;44109;52.398;7.024;2023-02-10T14:02:57;45.88;;;23.05;;
58302;SDS011;44109;52.398;7.024;2023-02-10T14:05:29;46.60;;;22.58;;
58302;SDS011;44109;52.398;7.024;2023-02-10T14:07:59;46.05;;;23.75;;
58302;SDS011;44109;52.398;7.024;2023-02-10T14:10:38;45.65;;;23.45;;
58302;SDS011;44109;52.398;7.024;2023-02-10T14:13:21;45.40;;;22.48;;
58302;SDS011;44109;52.398;7.024;2023-02-10T14:15:56;38.28;;;20.25;;
58302;SDS011;44109;52.398;7.024;2023-02-10T14:18:27;52.85;;;25.55;;
58302;SDS011;44109;52.398;7.024;2023-02-10T14:20:58;53.28;;;28.25;;
58302;SDS011;44109;52.398;7.024;2023-02-10T14:23:30;40.40;;;22.35;;
58302;SDS011;44109;52.398;7.024;2023-02-10T14:26:02;48.55;;;21.85;;
58302;SDS011;44109;52.398;7.024;2023-02-10T14:28:35;48.95;;;24.10;;
58302;SDS011;44109;52.398;7.024;2023-02-10T14:31:10;44.20;;;22.80;;
58302;SDS011;44109;52.398;7.024;2023-02-10T14:33:42;50.15;;;24.33;;
58302;SDS011;44109;52.398;7.024;2023-02-10T14:36:20;42.22;;;23.08;;
58302;SDS011;44109;52.398;7.024;2023-02-10T14:38:49;42.10;;;22.60;;
58302;SDS011;44109;52.398;7.024;2023-02-10T14:41:19;44.67;;;21.17;;
58302;SDS011;44109;52.398;7.024;2023-02-10T14:43:49;49.80;;;22.70;;
58302;SDS011;44109;52.398;7.024;2023-02-10T14:46:19;43.63;;;23.30;;
58302;SDS011;44109;52.398;7.024;2023-02-10T14:48:51;42.28;;;20.08;;
58302;SDS011;44109;52.398;7.024;2023-02-10T14:51:25;43.17;;;20.60;;
58302;SDS011;44109;52.398;7.024;2023-02-10T14:54:06;48.30;;;25.10;;
58302;SDS011;44109;52.398;7.024;2023-02-10T14:56:35;43.38;;;21.27;;
58302;SDS011;44109;52.398;7.024;2023-02-10T14:59:05;43.35;;;22.80;;
58302;SDS011;44109;52.398;7.024;2023-02-10T15:01:46;47.97;;;25.20;;
58302;SDS011;44109;52.398;7.024;2023-02-10T15:04:14;40.53;;;20.88;;
58302;SDS011;44109;52.398;7.024;2023-02-10T15:06:44;48.83;;;24.10;;